sensor_id;sensor_type;location;lat;lon;timestamp;pressure;altitude;pressure_sealevel;temperature;humidity
43217;BME280;60511;42.686;23.300;2023-06-22T00:00:08;95158.13;;;26.68;40.93
43217;BME280;60511;42.686;23.300;2023-06-22T00:02:11;95153.78;;;26.63;41.05
43217;BME280;60511;42.686;23.300;2023-06-22T00:04:12;95154.91;;;26.62;41.14
43217;BME280;60511;42.686;23.300;2023-06-22T00:06:12;95157.28;;;26.63;41.11
43217;BME280;60511;42.686;23.300;2023-06-22T00:08:13;95153.34;;;26.61;41.03
43217;BME280;60511;42.686;23.300;2023-06-22T00:10:13;95146.00;;;26.61;41.23
43217;BME280;60511;42.686;23.300;2023-06-22T00:12:13;95148.34;;;26.63;41.03
43217;BME280;60511;42.686;23.300;2023-06-22T00:14:13;95147.94;;;26.61;41.08
43217;BME280;60511;42.686;23.300;2023-06-22T00:16:14;95147.56;;;26.62;41.00
43217;BME280;60511;42.686;23.300;2023-06-22T00:18:14;95150.22;;;26.59;41.06
43217;BME280;60511;42.686;23.300;2023-06-22T00:20:15;95144.44;;;26.60;41.00
43217;BME280;60511;42.686;23.300;2023-06-22T00:22:18;95141.41;;;26.65;41.16
43217;BME280;60511;42.686;23.300;2023-06-22T00:24:21;95148.41;;;26.67;40.96
43217;BME280;60511;42.686;23.300;2023-06-22T00:26:22;95130.47;;;26.62;41.09
43217;BME280;60511;42.686;23.300;2023-06-22T00:28:23;95135.47;;;26.60;41.16
43217;BME280;60511;42.686;23.300;2023-06-22T00:30:23;95134.00;;;26.62;41.01
43217;BME280;60511;42.686;23.300;2023-06-22T00:32:23;95128.19;;;26.64;41.08
43217;BME280;60511;42.686;23.300;2023-06-22T00:34:24;95130.91;;;26.64;41.17
43217;BME280;60511;42.686;23.300;2023-06-22T00:36:24;95133.56;;;26.60;41.23
43217;BME280;60511;42.686;23.300;2023-06-22T00:38:24;95125.03;;;26.62;41.30
43217;BME280;60511;42.686;23.300;2023-06-22T00:40:25;95132.06;;;26.63;40.95
43217;BME280;60511;42.686;23.300;2023-06-22T00:42:25;95117.31;;;26.64;41.34
43217;BME280;60511;42.686;23.300;2023-06-22T00:44:26;95126.22;;;26.61;41.21
43217;BME280;60511;42.686;23.300;2023-06-22T00:46:26;95125.47;;;26.64;41.06
43217;BME280;60511;42.686;23.300;2023-06-22T00:48:27;95126.56;;;26.59;41.00
43217;BME280;60511;42.686;23.300;2023-06-22T00:50:28;95127.34;;;26.60;41.15
43217;BME280;60511;42.686;23.300;2023-06-22T00:52:33;95132.41;;;26.61;40.96
43217;BME280;60511;42.686;23.300;2023-06-22T00:54:35;95129.34;;;26.63;41.14
43217;BME280;60511;42.686;23.300;2023-06-22T00:56:36;95137.13;;;26.64;40.93
43217;BME280;60511;42.686;23.300;2023-06-22T00:58:37;95135.47;;;26.60;41.10
43217;BME280;60511;42.686;23.300;2023-06-22T01:00:41;95131.63;;;26.61;41.24
43217;BME280;60511;42.686;23.300;2023-06-22T01:02:42;95128.91;;;26.61;41.09
43217;BME280;60511;42.686;23.300;2023-06-22T01:04:45;95142.91;;;26.63;41.05
43217;BME280;60511;42.686;23.300;2023-06-22T01:06:47;95146.41;;;26.63;41.24
43217;BME280;60511;42.686;23.300;2023-06-22T01:09:02;95145.22;;;26.61;41.05
43217;BME280;60511;42.686;23.300;2023-06-22T01:11:11;95139.00;;;26.60;41.17
43217;BME280;60511;42.686;23.300;2023-06-22T01:13:28;95141.72;;;26.60;41.21
43217;BME280;60511;42.686;23.300;2023-06-22T01:17:56;95131.56;;;26.57;41.21
43217;BME280;60511;42.686;23.300;2023-06-22T01:19:58;95133.94;;;26.59;41.28
43217;BME280;60511;42.686;23.300;2023-06-22T01:22:00;95136.28;;;26.60;41.02
43217;BME280;60511;42.686;23.300;2023-06-22T01:24:14;95135.13;;;26.61;40.89
43217;BME280;60511;42.686;23.300;2023-06-22T01:30:41;95151.84;;;26.63;40.90
43217;BME280;60511;42.686;23.300;2023-06-22T01:32:42;95151.84;;;26.63;41.02
43217;BME280;60511;42.686;23.300;2023-06-22T01:34:42;95157.28;;;26.63;41.18
43217;BME280;60511;42.686;23.300;2023-06-22T01:36:43;95153.78;;;26.63;41.08
43217;BME280;60511;42.686;23.300;2023-06-22T01:38:44;95153.78;;;26.63;41.30
43217;BME280;60511;42.686;23.300;2023-06-22T01:40:45;95154.06;;;26.58;41.11
43217;BME280;60511;42.686;23.300;2023-06-22T01:42:46;95150.56;;;26.57;41.27
43217;BME280;60511;42.686;23.300;2023-06-22T01:44:47;95151.34;;;26.58;41.00
43217;BME280;60511;42.686;23.300;2023-06-22T01:46:48;95156.00;;;26.57;41.08
43217;BME280;60511;42.686;23.300;2023-06-22T01:48:49;95150.22;;;26.59;40.95
43217;BME280;60511;42.686;23.300;2023-06-22T01:50:50;95156.84;;;26.61;41.25
43217;BME280;60511;42.686;23.300;2023-06-22T01:52:50;95156.06;;;26.61;41.16
43217;BME280;60511;42.686;23.300;2023-06-22T01:54:51;95163.00;;;26.58;41.12
43217;BME280;60511;42.686;23.300;2023-06-22T01:56:51;95163.69;;;26.55;41.18
43217;BME280;60511;42.686;23.300;2023-06-22T02:03:30;95164.47;;;26.56;41.01
43217;BME280;60511;42.686;23.300;2023-06-22T02:05:33;95174.19;;;26.57;41.25
43217;BME280;60511;42.686;23.300;2023-06-22T02:07:39;95180.44;;;26.57;41.21
43217;BME280;60511;42.686;23.300;2023-06-22T02:09:41;95176.47;;;26.55;41.08
43217;BME280;60511;42.686;23.300;2023-06-22T02:11:44;95183.47;;;26.56;41.21
43217;BME280;60511;42.686;23.300;2023-06-22T02:13:46;95179.56;;;26.53;41.03
43217;BME280;60511;42.686;23.300;2023-06-22T02:15:47;95170.28;;;26.54;41.06
43217;BME280;60511;42.686;23.300;2023-06-22T02:17:47;95164.91;;;26.58;41.18
43217;BME280;60511;42.686;23.300;2023-06-22T02:19:48;95162.19;;;26.58;41.08
43217;BME280;60511;42.686;23.300;2023-06-22T02:21:48;95167.19;;;26.56;41.19
43217;BME280;60511;42.686;23.300;2023-06-22T02:23:48;95158.72;;;26.57;40.91
43217;BME280;60511;42.686;23.300;2023-06-22T02:25:49;95161.06;;;26.59;40.93
43217;BME280;60511;42.686;23.300;2023-06-22T02:27:49;95158.38;;;26.59;40.93
43217;BME280;60511;42.686;23.300;2023-06-22T02:29:49;95158.38;;;26.59;40.82
43217;BME280;60511;42.686;23.300;2023-06-22T02:31:49;95154.00;;;26.54;40.85
43217;BME280;60511;42.686;23.300;2023-06-22T02:33:50;95151.69;;;26.56;40.91
43217;BME280;60511;42.686;23.300;2023-06-22T02:35:50;95152.94;;;26.59;40.95
43217;BME280;60511;42.686;23.300;2023-06-22T02:37:50;95159.13;;;26.59;41.02
43217;BME280;60511;42.686;23.300;2023-06-22T02:39:52;95162.19;;;26.58;41.05
43217;BME280;60511;42.686;23.300;2023-06-22T02:41:54;95160.97;;;26.55;40.93
43217;BME280;60511;42.686;23.300;2023-06-22T02:43:54;95168.44;;;26.58;40.84
43217;BME280;60511;42.686;23.300;2023-06-22T02:45:54;95158.72;;;26.57;40.91
43217;BME280;60511;42.686;23.300;2023-06-22T02:47:56;95157.13;;;26.56;40.96
43217;BME280;60511;42.686;23.300;2023-06-22T02:49:56;95161.50;;;26.61;41.04
43217;BME280;60511;42.686;23.300;2023-06-22T02:51:57;95160.72;;;26.60;40.82
43217;BME280;60511;42.686;23.300;2023-06-22T02:53:57;95157.59;;;26.58;40.80
43217;BME280;60511;42.686;23.300;2023-06-22T02:55:57;95161.75;;;26.56;41.02
43217;BME280;60511;42.686;23.300;2023-06-22T02:57:57;95159.03;;;26.56;40.85
43217;BME280;60511;42.686;23.300;2023-06-22T02:59:59;95160.97;;;26.55;40.95
43217;BME280;60511;42.686;23.300;2023-06-22T03:02:00;95160.53;;;26.53;41.06
43217;BME280;60511;42.686;23.300;2023-06-22T03:04:00;95164.84;;;26.54;41.12
43217;BME280;60511;42.686;23.300;2023-06-22T03:06:00;95160.97;;;26.55;41.13
43217;BME280;60511;42.686;23.300;2023-06-22T03:08:01;95155.19;;;26.57;40.96
43217;BME280;60511;42.686;23.300;2023-06-22T03:10:01;95164.47;;;26.56;40.93
43217;BME280;60511;42.686;23.300;2023-06-22T03:12:01;95169.91;;;26.56;41.02
43217;BME280;60511;42.686;23.300;2023-06-22T03:14:02;95179.63;;;26.57;40.83
43217;BME280;60511;42.686;23.300;2023-06-22T03:16:02;95179.19;;;26.55;41.06
43217;BME280;60511;42.686;23.300;2023-06-22T03:18:03;95183.84;;;26.54;41.02
43217;BME280;60511;42.686;23.300;2023-06-22T03:20:03;95188.91;;;26.56;41.04
43217;BME280;60511;42.686;23.300;2023-06-22T03:22:10;95195.13;;;26.56;40.94
43217;BME280;60511;42.686;23.300;2023-06-22T03:24:11;95187.28;;;26.51;40.93
43217;BME280;60511;42.686;23.300;2023-06-22T03:26:11;95194.63;;;26.51;41.00
43217;BME280;60511;42.686;23.300;2023-06-22T03:28:11;95193.56;;;26.55;40.73
43217;BME280;60511;42.686;23.300;2023-06-22T03:30:12;95196.25;;;26.55;40.76
43217;BME280;60511;42.686;23.300;2023-06-22T03:32:12;95197.84;;;26.56;40.90
43217;BME280;60511;42.686;23.300;2023-06-22T03:34:12;95196.72;;;26.57;40.81
43217;BME280;60511;42.686;23.300;2023-06-22T03:36:13;95200.56;;;26.56;40.88
43217;BME280;60511;42.686;23.300;2023-06-22T03:38:13;95200.56;;;26.56;40.81
43217;BME280;60511;42.686;23.300;2023-06-22T03:40:13;95200.56;;;26.56;40.83
43217;BME280;60511;42.686;23.300;2023-06-22T03:42:14;95206.44;;;26.58;40.80
43217;BME280;60511;42.686;23.300;2023-06-22T03:44:14;95204.88;;;26.57;41.03
43217;BME280;60511;42.686;23.300;2023-06-22T03:46:14;95202.94;;;26.58;40.99
43217;BME280;60511;42.686;23.300;2023-06-22T03:48:15;95211.88;;;26.58;40.82
43217;BME280;60511;42.686;23.300;2023-06-22T03:50:15;95211.00;;;26.54;40.91
43217;BME280;60511;42.686;23.300;2023-06-22T03:52:15;95219.91;;;26.55;41.08
43217;BME280;60511;42.686;23.300;2023-06-22T03:54:16;95231.91;;;26.54;40.94
43217;BME280;60511;42.686;23.300;2023-06-22T03:56:16;95224.66;;;26.58;40.72
43217;BME280;60511;42.686;23.300;2023-06-22T03:58:20;95221.16;;;26.57;40.70
43217;BME280;60511;42.686;23.300;2023-06-22T04:00:21;95215.28;;;26.55;40.96
43217;BME280;60511;42.686;23.300;2023-06-22T04:02:21;95222.63;;;26.55;40.92
43217;BME280;60511;42.686;23.300;2023-06-22T04:04:21;95224.19;;;26.56;40.88
43217;BME280;60511;42.686;23.300;2023-06-22T04:06:22;95226.47;;;26.54;41.04
43217;BME280;60511;42.686;23.300;2023-06-22T04:08:22;95223.41;;;26.55;40.71
43217;BME280;60511;42.686;23.300;2023-06-22T04:10:23;95219.50;;;26.53;41.05
43217;BME280;60511;42.686;23.300;2023-06-22T04:12:23;95205.19;;;26.56;40.75
43217;BME280;60511;42.686;23.300;2023-06-22T04:14:23;95203.72;;;26.58;40.80
43217;BME280;60511;42.686;23.300;2023-06-22T04:16:24;95200.91;;;26.55;40.96
43217;BME280;60511;42.686;23.300;2023-06-22T04:18:24;95197.03;;;26.56;41.08
43217;BME280;60511;42.686;23.300;2023-06-22T04:20:24;95200.22;;;26.58;40.86
43217;BME280;60511;42.686;23.300;2023-06-22T04:22:28;95193.19;;;26.57;40.91
43217;BME280;60511;42.686;23.300;2023-06-22T04:24:28;95184.28;;;26.56;40.96
43217;BME280;60511;42.686;23.300;2023-06-22T04:26:28;95188.91;;;26.56;41.08
43217;BME280;60511;42.686;23.300;2023-06-22T04:28:28;95186.19;;;26.56;40.94
43217;BME280;60511;42.686;23.300;2023-06-22T04:30:28;95189.69;;;26.56;41.01
43217;BME280;60511;42.686;23.300;2023-06-22T04:32:31;95190.06;;;26.55;41.02
43217;BME280;60511;42.686;23.300;2023-06-22T04:34:31;95202.00;;;26.50;41.15
43217;BME280;60511;42.686;23.300;2023-06-22T04:36:39;95212.84;;;26.50;41.13
43217;BME280;60511;42.686;23.300;2023-06-22T04:38:40;95198.06;;;26.48;41.25
43217;BME280;60511;42.686;23.300;2023-06-22T04:40:42;95199.56;;;26.45;40.98
43217;BME280;60511;42.686;23.300;2023-06-22T04:42:42;95198.06;;;26.48;41.06
43217;BME280;60511;42.686;23.300;2023-06-22T04:44:52;95199.72;;;26.52;41.05
43217;BME280;60511;42.686;23.300;2023-06-22T04:46:57;95206.69;;;26.53;41.14
43217;BME280;60511;42.686;23.300;2023-06-22T04:49:04;95202.69;;;26.47;41.24
43217;BME280;60511;42.686;23.300;2023-06-22T04:51:06;95198.78;;;26.44;41.24
43217;BME280;60511;42.686;23.300;2023-06-22T04:53:08;95203.84;;;26.46;41.36
43217;BME280;60511;42.686;23.300;2023-06-22T04:55:09;95203.84;;;26.46;41.15
43217;BME280;60511;42.686;23.300;2023-06-22T04:57:10;95214.34;;;26.48;41.11
43217;BME280;60511;42.686;23.300;2023-06-22T04:59:10;95219.34;;;26.45;41.31
43217;BME280;60511;42.686;23.300;2023-06-22T05:01:13;95213.13;;;26.45;41.21
43217;BME280;60511;42.686;23.300;2023-06-22T05:03:13;95216.63;;;26.45;41.16
43217;BME280;60511;42.686;23.300;2023-06-22T05:05:13;95213.47;;;26.43;41.40
43217;BME280;60511;42.686;23.300;2023-06-22T05:07:14;95212.84;;;26.50;41.27
43217;BME280;60511;42.686;23.300;2023-06-22T05:09:14;95206.63;;;26.50;41.00
43217;BME280;60511;42.686;23.300;2023-06-22T05:11:15;95214.00;;;26.49;41.11
43217;BME280;60511;42.686;23.300;2023-06-22T05:13:15;95212.00;;;26.46;41.31
43217;BME280;60511;42.686;23.300;2023-06-22T05:15:15;95211.69;;;26.51;41.27
43217;BME280;60511;42.686;23.300;2023-06-22T05:17:16;95209.34;;;26.50;41.13
43217;BME280;60511;42.686;23.300;2023-06-22T05:19:19;95208.91;;;26.48;41.12
43217;BME280;60511;42.686;23.300;2023-06-22T05:21:26;95216.69;;;26.49;41.27
43217;BME280;60511;42.686;23.300;2023-06-22T05:23:27;95215.19;;;26.52;41.19
43217;BME280;60511;42.686;23.300;2023-06-22T05:25:27;95214.41;;;26.51;41.29
43217;BME280;60511;42.686;23.300;2023-06-22T05:27:30;95209.75;;;26.52;41.23
43217;BME280;60511;42.686;23.300;2023-06-22T05:29:30;95209.34;;;26.50;41.28
43217;BME280;60511;42.686;23.300;2023-06-22T05:31:30;95209.75;;;26.52;41.17
43217;BME280;60511;42.686;23.300;2023-06-22T05:33:31;95215.19;;;26.52;41.21
43217;BME280;60511;42.686;23.300;2023-06-22T05:35:31;95224.91;;;26.53;41.06
43217;BME280;60511;42.686;23.300;2023-06-22T05:37:31;95224.56;;;26.54;41.17
43217;BME280;60511;42.686;23.300;2023-06-22T05:39:31;95221.00;;;26.50;41.28
43217;BME280;60511;42.686;23.300;2023-06-22T05:41:32;95235.78;;;26.53;41.07
43217;BME280;60511;42.686;23.300;2023-06-22T05:43:32;95230.44;;;26.56;41.08
43217;BME280;60511;42.686;23.300;2023-06-22T05:45:33;95235.78;;;26.53;41.21
43217;BME280;60511;42.686;23.300;2023-06-22T05:47:33;95235.84;;;26.56;41.05
43217;BME280;60511;42.686;23.300;2023-06-22T05:49:33;95240.47;;;26.56;40.85
43217;BME280;60511;42.686;23.300;2023-06-22T05:51:34;95245.47;;;26.54;41.05
43217;BME280;60511;42.686;23.300;2023-06-22T05:53:34;95243.56;;;26.54;41.21
43217;BME280;60511;42.686;23.300;2023-06-22T05:55:34;95241.28;;;26.56;41.30
43217;BME280;60511;42.686;23.300;2023-06-22T05:57:34;95239.28;;;26.53;41.14
43217;BME280;60511;42.686;23.300;2023-06-22T05:59:35;95245.06;;;26.52;41.29
43217;BME280;60511;42.686;23.300;2023-06-22T06:01:35;95243.56;;;26.54;41.07
43217;BME280;60511;42.686;23.300;2023-06-22T06:03:36;95237.34;;;26.54;41.05
43217;BME280;60511;42.686;23.300;2023-06-22T06:05:41;95240.84;;;26.54;41.17
43217;BME280;60511;42.686;23.300;2023-06-22T06:07:44;95237.44;;;26.57;41.27
43217;BME280;60511;42.686;23.300;2023-06-22T06:09:45;95228.41;;;26.53;41.25
43217;BME280;60511;42.686;23.300;2023-06-22T06:11:45;95229.56;;;26.52;41.19
43217;BME280;60511;42.686;23.300;2023-06-22T06:13:46;95230.34;;;26.53;41.15
43217;BME280;60511;42.686;23.300;2023-06-22T06:15:46;95227.28;;;26.54;41.17
43217;BME280;60511;42.686;23.300;2023-06-22T06:17:48;95223.41;;;26.55;41.15
43217;BME280;60511;42.686;23.300;2023-06-22T06:19:48;95223.06;;;26.57;41.19
43217;BME280;60511;42.686;23.300;2023-06-22T06:21:48;95220.28;;;26.53;41.38
43217;BME280;60511;42.686;23.300;2023-06-22T06:23:50;95229.63;;;26.56;41.34
43217;BME280;60511;42.686;23.300;2023-06-22T06:25:50;95226.91;;;26.56;41.13
43217;BME280;60511;42.686;23.300;2023-06-22T06:27:51;95219.13;;;26.54;41.14
43217;BME280;60511;42.686;23.300;2023-06-22T06:29:52;95223.41;;;26.55;41.34
43217;BME280;60511;42.686;23.300;2023-06-22T06:31:52;95218.34;;;26.54;41.13
43217;BME280;60511;42.686;23.300;2023-06-22T06:33:54;95226.13;;;26.55;41.48
43217;BME280;60511;42.686;23.300;2023-06-22T06:35:54;95222.28;;;26.56;41.19
43217;BME280;60511;42.686;23.300;2023-06-22T06:37:55;95224.19;;;26.56;41.39
43217;BME280;60511;42.686;23.300;2023-06-22T06:39:56;95218.88;;;26.59;41.30
43217;BME280;60511;42.686;23.300;2023-06-22T06:41:57;95218.44;;;26.57;41.27
43217;BME280;60511;42.686;23.300;2023-06-22T06:43:57;95217.63;;;26.57;41.27
43217;BME280;60511;42.686;23.300;2023-06-22T06:45:57;95200.22;;;26.58;41.30
43217;BME280;60511;42.686;23.300;2023-06-22T06:47:58;95207.59;;;26.57;41.19
43217;BME280;60511;42.686;23.300;2023-06-22T06:49:58;95209.94;;;26.59;41.19
43217;BME280;60511;42.686;23.300;2023-06-22T06:51:59;95207.59;;;26.57;41.30
43217;BME280;60511;42.686;23.300;2023-06-22T06:54:00;95200.56;;;26.56;41.37
43217;BME280;60511;42.686;23.300;2023-06-22T06:56:00;95191.28;;;26.57;41.33
43217;BME280;60511;42.686;23.300;2023-06-22T06:58:01;95198.63;;;26.57;41.18
43217;BME280;60511;42.686;23.300;2023-06-22T07:00:01;95211.00;;;26.54;41.37
43217;BME280;60511;42.686;23.300;2023-06-22T07:02:07;95208.28;;;26.54;41.49
43217;BME280;60511;42.686;23.300;2023-06-22T07:04:08;95189.28;;;26.54;41.33
43217;BME280;60511;42.686;23.300;2023-06-22T07:06:09;95197.44;;;26.54;41.28
43217;BME280;60511;42.686;23.300;2023-06-22T07:08:09;95202.84;;;26.54;41.46
43217;BME280;60511;42.686;23.300;2023-06-22T07:10:09;95203.19;;;26.53;41.42
43217;BME280;60511;42.686;23.300;2023-06-22T07:12:10;95200.50;;;26.53;41.40
43217;BME280;60511;42.686;23.300;2023-06-22T07:14:10;95198.19;;;26.55;41.53
43217;BME280;60511;42.686;23.300;2023-06-22T07:16:10;95204.75;;;26.54;41.49
43217;BME280;60511;42.686;23.300;2023-06-22T07:18:11;95194.31;;;26.56;41.44
43217;BME280;60511;42.686;23.300;2023-06-22T07:20:11;95201.34;;;26.57;41.53
43217;BME280;60511;42.686;23.300;2023-06-22T07:22:12;95200.56;;;26.56;41.46
43217;BME280;60511;42.686;23.300;2023-06-22T07:24:12;95200.56;;;26.56;41.41
43217;BME280;60511;42.686;23.300;2023-06-22T07:26:12;95195.91;;;26.57;41.70
43217;BME280;60511;42.686;23.300;2023-06-22T07:28:13;95200.91;;;26.55;41.42
43217;BME280;60511;42.686;23.300;2023-06-22T07:30:13;95198.19;;;26.55;41.47
43217;BME280;60511;42.686;23.300;2023-06-22T07:32:13;95198.19;;;26.55;41.41
43217;BME280;60511;42.686;23.300;2023-06-22T07:34:14;95202.47;;;26.56;41.42
43217;BME280;60511;42.686;23.300;2023-06-22T07:36:14;95199.09;;;26.59;41.35
43217;BME280;60511;42.686;23.300;2023-06-22T07:38:15;95211.41;;;26.56;41.57
43217;BME280;60511;42.686;23.300;2023-06-22T07:40:15;95201.34;;;26.57;41.58
43217;BME280;60511;42.686;23.300;2023-06-22T07:42:16;95203.34;;;26.60;41.66
43217;BME280;60511;42.686;23.300;2023-06-22T07:44:18;95205.78;;;26.65;41.46
43217;BME280;60511;42.686;23.300;2023-06-22T07:46:19;95205.06;;;26.68;41.47
43217;BME280;60511;42.686;23.300;2023-06-22T07:48:20;95212.44;;;26.68;41.38
43217;BME280;60511;42.686;23.300;2023-06-22T07:50:20;95216.34;;;26.70;41.32
43217;BME280;60511;42.686;23.300;2023-06-22T07:52:20;95213.63;;;26.70;41.30
43217;BME280;60511;42.686;23.300;2023-06-22T07:54:21;95204.69;;;26.70;41.59
43217;BME280;60511;42.686;23.300;2023-06-22T07:56:21;95201.63;;;26.71;41.45
43217;BME280;60511;42.686;23.300;2023-06-22T07:58:21;95203.19;;;26.72;41.44
43217;BME280;60511;42.686;23.300;2023-06-22T08:00:22;95198.91;;;26.71;41.64
43217;BME280;60511;42.686;23.300;2023-06-22T08:02:22;95198.50;;;26.69;41.55
43217;BME280;60511;42.686;23.300;2023-06-22T08:04:22;95196.22;;;26.71;41.26
43217;BME280;60511;42.686;23.300;2023-06-22T08:06:22;95187.31;;;26.74;41.15
43217;BME280;60511;42.686;23.300;2023-06-22T08:08:23;95188.47;;;26.73;41.29
43217;BME280;60511;42.686;23.300;2023-06-22T08:10:23;95185.34;;;26.71;41.51
43217;BME280;60511;42.686;23.300;2023-06-22T08:12:23;95183.84;;;26.74;41.38
43217;BME280;60511;42.686;23.300;2023-06-22T08:14:26;95183.47;;;26.75;41.57
43217;BME280;60511;42.686;23.300;2023-06-22T08:16:27;95179.97;;;26.75;41.38
43217;BME280;60511;42.686;23.300;2023-06-22T08:18:27;95181.88;;;26.74;41.50
43217;BME280;60511;42.686;23.300;2023-06-22T08:20:28;95179.56;;;26.73;41.58
43217;BME280;60511;42.686;23.300;2023-06-22T08:22:28;95185.41;;;26.75;41.49
43217;BME280;60511;42.686;23.300;2023-06-22T08:24:30;95185.41;;;26.75;41.50
43217;BME280;60511;42.686;23.300;2023-06-22T08:26:30;95180.69;;;26.72;41.37
43217;BME280;60511;42.686;23.300;2023-06-22T08:28:31;95177.91;;;26.68;41.70
43217;BME280;60511;42.686;23.300;2023-06-22T08:30:31;95171.78;;;26.71;41.62
43217;BME280;60511;42.686;23.300;2023-06-22T08:32:32;95177.63;;;26.73;41.72
43217;BME280;60511;42.686;23.300;2023-06-22T08:34:35;95169.13;;;26.75;41.74
43217;BME280;60511;42.686;23.300;2023-06-22T08:36:35;95171.44;;;26.76;41.55
43217;BME280;60511;42.686;23.300;2023-06-22T08:38:41;95178.13;;;26.79;41.60
43217;BME280;60511;42.686;23.300;2023-06-22T08:40:41;95180.03;;;26.78;41.48
43217;BME280;60511;42.686;23.300;2023-06-22T08:42:42;95184.69;;;26.78;41.61
43217;BME280;60511;42.686;23.300;2023-06-22T08:44:42;95183.53;;;26.79;41.76
43217;BME280;60511;42.686;23.300;2023-06-22T08:46:42;95191.69;;;26.79;41.74
43217;BME280;60511;42.686;23.300;2023-06-22T08:48:43;95182.75;;;26.78;41.72
43217;BME280;60511;42.686;23.300;2023-06-22T08:50:43;95176.19;;;26.79;41.53
43217;BME280;60511;42.686;23.300;2023-06-22T08:52:43;95168.81;;;26.80;41.63
43217;BME280;60511;42.686;23.300;2023-06-22T08:54:43;95169.59;;;26.80;41.72
43217;BME280;60511;42.686;23.300;2023-06-22T08:56:44;95167.59;;;26.77;41.62
43217;BME280;60511;42.686;23.300;2023-06-22T08:58:44;95171.84;;;26.75;41.76
43217;BME280;60511;42.686;23.300;2023-06-22T09:00:44;95159.88;;;26.79;41.47
43217;BME280;60511;42.686;23.300;2023-06-22T09:02:45;95158.72;;;26.80;41.78
43217;BME280;60511;42.686;23.300;2023-06-22T09:04:45;95166.09;;;26.80;41.74
43217;BME280;60511;42.686;23.300;2023-06-22T09:06:46;95163.03;;;26.81;41.67
43217;BME280;60511;42.686;23.300;2023-06-22T09:08:46;95164.16;;;26.80;41.82
43217;BME280;60511;42.686;23.300;2023-06-22T09:10:47;95159.88;;;26.79;41.80
43217;BME280;60511;42.686;23.300;2023-06-22T09:12:47;95161.81;;;26.79;41.65
43217;BME280;60511;42.686;23.300;2023-06-22T09:14:47;95164.47;;;26.75;41.77
43217;BME280;60511;42.686;23.300;2023-06-22T09:16:49;95165.59;;;26.74;41.84
43217;BME280;60511;42.686;23.300;2023-06-22T09:18:49;95161.81;;;26.79;41.76
43217;BME280;60511;42.686;23.300;2023-06-22T09:20:49;95154.88;;;26.81;41.84
43217;BME280;60511;42.686;23.300;2023-06-22T09:22:50;95159.22;;;26.86;41.58
43217;BME280;60511;42.686;23.300;2023-06-22T09:24:50;95161.56;;;26.88;41.41
43217;BME280;60511;42.686;23.300;2023-06-22T09:26:51;95157.28;;;26.86;41.41
43217;BME280;60511;42.686;23.300;2023-06-22T09:28:52;95161.16;;;26.85;41.59
43217;BME280;60511;42.686;23.300;2023-06-22T09:30:52;95168.09;;;26.83;41.66
43217;BME280;60511;42.686;23.300;2023-06-22T09:32:58;95168.53;;;26.85;41.46
43217;BME280;60511;42.686;23.300;2023-06-22T09:34:58;95170.84;;;26.86;41.68
43217;BME280;60511;42.686;23.300;2023-06-22T09:36:58;95169.31;;;26.85;41.75
43217;BME280;60511;42.686;23.300;2023-06-22T09:39:00;95165.81;;;26.85;41.72
43217;BME280;60511;42.686;23.300;2023-06-22T09:41:05;95169.38;;;26.89;41.46
43217;BME280;60511;42.686;23.300;2023-06-22T09:43:06;95172.50;;;26.91;41.22
43217;BME280;60511;42.686;23.300;2023-06-22T09:45:07;95166.34;;;26.94;41.14
43217;BME280;60511;42.686;23.300;2023-06-22T09:47:09;95166.69;;;26.93;41.21
43217;BME280;60511;42.686;23.300;2023-06-22T09:49:09;95160.84;;;26.91;41.57
43217;BME280;60511;42.686;23.300;2023-06-22T09:51:09;95159.63;;;26.88;41.58
43217;BME280;60511;42.686;23.300;2023-06-22T09:53:10;95157.28;;;26.86;41.65
43217;BME280;60511;42.686;23.300;2023-06-22T09:55:10;95147.63;;;26.89;41.66
43217;BME280;60511;42.686;23.300;2023-06-22T09:57:10;95155.41;;;26.91;41.57
43217;BME280;60511;42.686;23.300;2023-06-22T09:59:10;95157.34;;;26.90;41.50
43217;BME280;60511;42.686;23.300;2023-06-22T10:01:11;95143.75;;;26.90;41.47
43217;BME280;60511;42.686;23.300;2023-06-22T10:03:11;95147.63;;;26.89;41.78
43217;BME280;60511;42.686;23.300;2023-06-22T10:05:11;95141.03;;;26.90;41.81
43217;BME280;60511;42.686;23.300;2023-06-22T10:07:12;95141.03;;;26.90;41.65
43217;BME280;60511;42.686;23.300;2023-06-22T10:09:12;95150.41;;;26.93;41.58
43217;BME280;60511;42.686;23.300;2023-06-22T10:11:12;95140.34;;;26.93;41.57
43217;BME280;60511;42.686;23.300;2023-06-22T10:13:13;95141.13;;;26.94;41.79
43217;BME280;60511;42.686;23.300;2023-06-22T10:15:14;95136.81;;;26.93;41.76
43217;BME280;60511;42.686;23.300;2023-06-22T10:17:14;95140.75;;;26.95;41.83
43217;BME280;60511;42.686;23.300;2023-06-22T10:19:14;95134.53;;;26.95;41.66
43217;BME280;60511;42.686;23.300;2023-06-22T10:21:15;95134.09;;;26.93;41.71
43217;BME280;60511;42.686;23.300;2023-06-22T10:23:16;95129.88;;;26.95;41.73
43217;BME280;60511;42.686;23.300;2023-06-22T10:25:16;95131.44;;;26.96;41.67
43217;BME280;60511;42.686;23.300;2023-06-22T10:27:17;95133.38;;;26.96;41.85
43217;BME280;60511;42.686;23.300;2023-06-22T10:29:17;95130.72;;;26.99;41.75
43217;BME280;60511;42.686;23.300;2023-06-22T10:31:17;95130.31;;;26.97;41.69
43217;BME280;60511;42.686;23.300;2023-06-22T10:33:18;95136.16;;;26.99;41.72
43217;BME280;60511;42.686;23.300;2023-06-22T10:35:18;95128.78;;;27.00;41.59
43217;BME280;60511;42.686;23.300;2023-06-22T10:37:19;95128.78;;;27.00;41.25
43217;BME280;60511;42.686;23.300;2023-06-22T10:39:19;95120.28;;;27.01;41.46
43217;BME280;60511;42.686;23.300;2023-06-22T10:41:19;95127.63;;;27.01;41.63
43217;BME280;60511;42.686;23.300;2023-06-22T10:43:20;95117.56;;;27.01;41.58